Time;durP1;ratioP1;P1;durP2;ratioP2;P2;SDS_P1;SDS_P2;PMS_P1;PMS_P2;Temp;Humidity;BMP_temperature;BMP_pressure;BME280_temperature;BME280_humidity;BME280_pressure;Samples;Min_cycle;Max_cycle;Signal;HPM_P1;HPM_P2
2022/10/25 00:01:29;;;;;;;13.05;2.78;;;14.10;99.90;;;;;;5004202;28;36657;-80
2022/10/25 00:03:55;;;;;;;16.27;3.25;;;14.10;99.90;;;;;;5009809;28;37580;-79
2022/10/25 00:06:22;;;;;;;16.27;2.65;;;14.00;99.90;;;;;;4981123;28;39191;-80
2022/10/25 00:08:48;;;;;;;13.48;2.40;;;14.00;99.90;;;;;;4985951;28;37857;-79
2022/10/25 00:11:27;;;;;;;12.10;2.38;;;14.00;99.90;;;;;;4990180;28;36619;-79
2022/10/25 00:13:55;;;;;;;13.65;2.38;;;14.00;99.90;;;;;;4987179;28;37713;-80
2022/10/25 00:16:25;;;;;;;15.18;2.42;;;14.10;99.90;;;;;;4990461;28;37516;-80
2022/10/25 00:18:52;;;;;;;19.98;3.28;;;14.20;99.90;;;;;;5006835;28;39441;-80
2022/10/25 00:21:20;;;;;;;17.10;3.00;;;14.20;99.90;;;;;;4986499;28;37391;-80
2022/10/25 00:23:47;;;;;;;19.50;3.38;;;14.20;99.90;;;;;;4980372;28;40191;-80
2022/10/25 00:26:13;;;;;;;31.02;3.45;;;14.20;99.90;;;;;;5015226;28;39165;-79
2022/10/25 00:28:40;;;;;;;22.50;3.20;;;14.20;99.90;;;;;;4991055;28;38591;-79
2022/10/25 00:31:11;;;;;;;17.33;3.00;;;14.20;99.90;;;;;;5010174;28;37377;-81
2022/10/25 00:33:38;;;;;;;25.77;3.33;;;14.30;99.90;;;;;;5012328;28;39198;-79
2022/10/25 00:36:10;;;;;;;18.15;3.20;;;14.30;99.90;;;;;;5008808;28;39268;-80
2022/10/25 00:38:37;;;;;;;19.90;3.53;;;14.30;99.90;;;;;;4996018;28;39023;-79
2022/10/25 00:41:04;;;;;;;23.10;3.45;;;14.20;99.90;;;;;;5011838;28;37361;-79
2022/10/25 00:43:49;;;;;;;17.38;2.40;;;14.30;99.90;;;;;;4991546;28;47103;-80
2022/10/25 00:46:19;;;;;;;18.80;3.05;;;14.30;99.90;;;;;;5010204;28;39265;-79
2022/10/25 00:49:17;;;;;;;24.80;3.28;;;14.30;99.90;;;;;;5009981;28;38082;-79
2022/10/25 00:51:54;;;;;;;18.77;2.90;;;14.40;99.90;;;;;;5001537;28;48480;-80
2022/10/25 00:54:28;;;;;;;22.98;3.78;;;14.40;99.90;;;;;;5006171;28;37612;-80
2022/10/25 00:56:58;;;;;;;22.80;3.60;;;14.40;99.90;;;;;;5008678;28;38850;-80
2022/10/25 00:59:26;;;;;;;23.70;3.70;;;14.30;99.90;;;;;;4994331;28;36676;-80
2022/10/25 01:04:32;;;;;;;32.78;4.18;;;14.20;99.90;;;;;;1291017;26;21498;-81
2022/10/25 01:07:00;;;;;;;21.30;3.08;;;14.20;99.90;;;;;;4960868;28;39526;-82
2022/10/25 01:09:29;;;;;;;26.05;4.22;;;14.10;99.90;;;;;;4977023;28;38700;-81
2022/10/25 01:12:00;;;;;;;22.38;3.10;;;14.10;99.90;;;;;;4979179;28;37173;-81
2022/10/25 01:14:28;;;;;;;22.17;3.30;;;14.10;99.90;;;;;;4978835;28;39038;-82
2022/10/25 01:17:31;;;;;;;24.67;4.72;;;14.10;99.90;;;;;;4972246;28;38264;-83
2022/10/25 01:20:31;;;;;;;20.17;3.97;;;14.10;99.90;;;;;;4963065;28;47339;-79
2022/10/25 01:23:10;;;;;;;21.52;3.50;;;14.10;99.90;;;;;;4958327;28;47500;-81
2022/10/25 01:26:10;;;;;;;25.17;3.50;;;14.10;99.90;;;;;;4956809;28;47050;-80
2022/10/25 01:29:07;;;;;;;23.83;2.75;;;14.10;99.90;;;;;;4995510;28;48334;-79
2022/10/25 01:31:45;;;;;;;26.13;3.08;;;14.10;99.90;;;;;;4987647;28;37725;-82
2022/10/25 01:34:27;;;;;;;21.23;2.97;;;14.10;99.90;;;;;;4984850;28;37644;-81
2022/10/25 01:36:56;;;;;;;17.60;3.22;;;14.00;99.90;;;;;;4984484;28;38768;-81
2022/10/25 01:39:32;;;;;;;32.08;3.78;;;14.00;99.90;;;;;;5008361;28;40350;-81
2022/10/25 01:42:35;;;;;;;17.80;2.63;;;13.90;99.90;;;;;;4988105;28;37758;-80
2022/10/25 01:45:30;;;;;;;21.10;2.97;;;13.90;99.90;;;;;;4977491;28;48637;-82
2022/10/25 01:48:11;;;;;;;24.05;2.95;;;13.90;99.90;;;;;;4978289;28;48373;-81
2022/10/25 01:50:44;;;;;;;16.08;3.03;;;13.80;99.90;;;;;;4981809;28;47014;-80
2022/10/25 01:53:11;;;;;;;17.88;4.70;;;13.80;99.90;;;;;;5004449;28;38382;-79
2022/10/25 01:55:52;;;;;;;21.58;4.10;;;13.80;99.90;;;;;;4979680;28;37963;-81
2022/10/25 01:58:38;;;;;;;17.02;3.17;;;13.90;99.90;;;;;;4978552;28;39669;-81
2022/10/25 02:01:42;;;;;;;22.65;3.20;;;13.90;99.90;;;;;;4978869;28;38583;-78
2022/10/25 02:04:19;;;;;;;24.70;3.85;;;14.00;99.90;;;;;;4970019;23;48334;-81
2022/10/25 02:06:59;;;;;;;22.70;2.97;;;14.00;99.90;;;;;;4965057;28;39426;-81
2022/10/25 02:09:48;;;;;;;23.75;3.05;;;14.00;99.90;;;;;;4976618;28;40684;-81
2022/10/25 02:12:25;;;;;;;17.90;2.40;;;14.00;99.90;;;;;;4970757;28;39032;-81
2022/10/25 02:15:04;;;;;;;22.05;3.38;;;13.90;99.90;;;;;;4975146;23;38534;-80
2022/10/25 02:17:35;;;;;;;19.27;3.65;;;13.90;99.90;;;;;;4976069;28;46975;-80
2022/10/25 02:20:03;;;;;;;27.83;3.53;;;13.90;99.90;;;;;;4970053;28;39227;-80
2022/10/25 02:22:33;;;;;;;19.77;3.35;;;13.90;99.90;;;;;;4989437;28;48480;-81
2022/10/25 02:25:00;;;;;;;19.45;3.17;;;13.90;99.90;;;;;;4982071;28;39181;-80
2022/10/25 02:27:29;;;;;;;20.92;3.13;;;13.90;99.90;;;;;;4971063;28;37731;-81
2022/10/25 02:29:55;;;;;;;29.20;3.70;;;13.80;99.90;;;;;;4962498;28;39398;-80
2022/10/25 02:32:21;;;;;;;18.98;3.17;;;13.80;99.90;;;;;;4992444;28;37819;-81
2022/10/25 02:34:48;;;;;;;24.15;4.03;;;13.70;99.90;;;;;;4973766;28;38589;-80
2022/10/25 02:37:14;;;;;;;25.67;4.63;;;13.70;99.90;;;;;;4983025;28;36509;-80
2022/10/25 02:39:40;;;;;;;25.65;3.60;;;13.60;99.90;;;;;;4982296;28;37222;-80
2022/10/25 02:42:06;;;;;;;23.20;2.97;;;13.60;99.90;;;;;;4976776;28;38602;-80
2022/10/25 02:44:32;;;;;;;26.60;3.63;;;13.60;99.90;;;;;;4978327;28;38065;-80
2022/10/25 02:46:58;;;;;;;21.35;3.25;;;13.60;99.90;;;;;;4997145;28;38083;-80
2022/10/25 02:49:24;;;;;;;27.38;3.70;;;13.50;99.90;;;;;;4977261;28;39451;-80
2022/10/25 02:51:50;;;;;;;18.27;4.13;;;13.60;99.90;;;;;;4982487;28;38943;-80
2022/10/25 02:54:17;;;;;;;18.83;2.97;;;13.60;99.90;;;;;;4991447;28;38730;-79
2022/10/25 02:56:43;;;;;;;25.10;3.97;;;13.50;99.90;;;;;;4978359;28;38366;-80
2022/10/25 02:59:11;;;;;;;20.30;2.50;;;13.50;99.90;;;;;;4971884;28;40426;-80
2022/10/25 03:01:37;;;;;;;21.60;3.28;;;13.50;99.90;;;;;;4974749;28;39390;-80
2022/10/25 03:04:03;;;;;;;24.20;3.63;;;13.50;99.90;;;;;;4992237;28;38437;-80
2022/10/25 03:06:29;;;;;;;25.02;3.42;;;13.40;99.90;;;;;;4983458;28;37458;-80
2022/10/25 03:08:56;;;;;;;27.45;4.03;;;13.50;99.90;;;;;;4977690;28;37609;-80
2022/10/25 03:11:22;;;;;;;18.92;3.67;;;13.60;99.90;;;;;;4970976;28;37706;-80
2022/10/25 03:13:48;;;;;;;24.10;3.58;;;13.60;99.90;;;;;;4979874;28;36127;-80
2022/10/25 03:16:15;;;;;;;17.75;3.58;;;13.70;99.90;;;;;;4994568;28;37579;-80
2022/10/25 03:18:41;;;;;;;25.70;3.33;;;13.70;99.90;;;;;;4999184;28;39804;-80
2022/10/25 03:21:07;;;;;;;25.98;3.72;;;13.80;99.90;;;;;;4979507;28;39234;-80
2022/10/25 03:23:33;;;;;;;27.35;3.63;;;13.80;99.90;;;;;;4994197;28;39626;-80
2022/10/25 03:26:00;;;;;;;29.20;4.18;;;13.80;99.90;;;;;;4977397;28;36331;-78
2022/10/25 03:28:27;;;;;;;23.27;3.58;;;13.80;99.90;;;;;;4992330;28;39126;-80
2022/10/25 03:30:54;;;;;;;27.58;4.20;;;13.80;99.90;;;;;;4995362;28;39053;-80
2022/10/25 03:33:21;;;;;;;26.25;4.22;;;13.80;99.90;;;;;;4975853;28;37503;-80
2022/10/25 03:35:52;;;;;;;27.88;4.40;;;13.90;99.90;;;;;;4983241;28;37323;-79
2022/10/25 03:38:24;;;;;;;21.30;4.97;;;13.90;99.90;;;;;;4979052;28;39028;-80
2022/10/25 03:40:50;;;;;;;26.10;4.00;;;13.90;99.90;;;;;;4994057;28;40124;-80
2022/10/25 03:43:16;;;;;;;25.45;4.72;;;13.90;99.90;;;;;;4998701;28;38509;-80
2022/10/25 03:45:42;;;;;;;15.15;4.28;;;13.90;99.90;;;;;;4979239;28;36172;-80
2022/10/25 03:48:08;;;;;;;19.05;4.13;;;13.90;99.90;;;;;;4966052;28;39878;-80
2022/10/25 03:50:37;;;;;;;24.88;4.38;;;14.00;99.90;;;;;;4997119;28;39953;-80
2022/10/25 03:53:04;;;;;;;25.73;5.07;;;14.00;99.90;;;;;;4963123;28;37835;-80
2022/10/25 03:55:31;;;;;;;29.65;4.72;;;13.90;99.90;;;;;;4995854;28;37526;-79
2022/10/25 03:57:58;;;;;;;19.48;3.70;;;13.80;99.90;;;;;;4989514;28;38300;-79
2022/10/25 04:00:24;;;;;;;20.73;3.60;;;13.80;99.90;;;;;;4996784;28;38515;-79
2022/10/25 04:02:55;;;;;;;19.00;4.50;;;13.80;99.90;;;;;;4969280;28;37755;-79
2022/10/25 04:05:21;;;;;;;20.02;3.58;;;13.80;99.90;;;;;;4957504;28;36332;-80
2022/10/25 04:07:47;;;;;;;23.90;3.20;;;13.70;99.90;;;;;;4982834;28;38147;-80
2022/10/25 04:10:14;;;;;;;30.85;4.60;;;13.60;99.90;;;;;;4980671;28;37598;-79
2022/10/25 04:12:40;;;;;;;23.13;4.35;;;13.60;99.90;;;;;;4979796;28;37661;-80
2022/10/25 04:15:06;;;;;;;20.02;3.10;;;13.60;99.90;;;;;;4995274;28;38108;-79
2022/10/25 04:17:32;;;;;;;17.58;3.65;;;13.50;99.90;;;;;;4979931;28;37358;-79
2022/10/25 04:19:58;;;;;;;15.18;2.83;;;13.50;99.90;;;;;;4985682;28;37907;-80
2022/10/25 04:22:25;;;;;;;15.88;2.75;;;13.50;99.90;;;;;;4954302;28;39253;-80
2022/10/25 04:24:51;;;;;;;16.23;3.25;;;13.40;99.90;;;;;;4987851;28;36311;-79
2022/10/25 04:27:17;;;;;;;15.65;2.42;;;13.40;99.90;;;;;;4988394;28;37780;-80
2022/10/25 04:29:43;;;;;;;12.70;2.70;;;13.40;99.90;;;;;;4974218;28;38222;-80
2022/10/25 04:32:09;;;;;;;16.38;2.85;;;13.30;99.90;;;;;;4979822;28;38437;-79
2022/10/25 04:34:35;;;;;;;6.85;1.80;;;13.30;99.90;;;;;;4964458;28;36166;-79
2022/10/25 04:37:02;;;;;;;12.85;2.28;;;13.40;99.90;;;;;;4978087;28;38933;-80
2022/10/25 04:39:28;;;;;;;13.50;2.88;;;13.40;99.90;;;;;;4977993;28;37591;-79
2022/10/25 04:41:54;;;;;;;13.18;2.80;;;13.40;99.90;;;;;;4967330;28;38446;-79
2022/10/25 04:44:20;;;;;;;9.80;2.30;;;13.50;99.90;;;;;;4967945;28;36932;-80
2022/10/25 04:46:46;;;;;;;17.55;3.20;;;13.50;99.90;;;;;;4993033;28;39708;-79
2022/10/25 04:49:13;;;;;;;16.05;3.13;;;13.50;99.90;;;;;;4981704;28;38869;-80
2022/10/25 04:51:40;;;;;;;18.38;2.47;;;13.50;99.90;;;;;;4986769;28;38424;-79
2022/10/25 04:54:06;;;;;;;11.98;2.00;;;13.50;99.90;;;;;;4975928;28;37755;-80
2022/10/25 04:56:32;;;;;;;26.40;2.95;;;13.60;99.90;;;;;;4986235;28;39726;-79
2022/10/25 04:58:58;;;;;;;12.55;1.95;;;13.60;99.90;;;;;;4959483;28;38488;-80
2022/10/25 05:01:24;;;;;;;15.05;3.45;;;13.60;99.90;;;;;;4975405;28;38150;-80
2022/10/25 05:03:51;;;;;;;12.07;3.15;;;13.60;99.90;;;;;;4967887;28;36143;-79
2022/10/25 05:06:22;;;;;;;14.45;3.08;;;13.60;99.90;;;;;;4983438;28;38870;-79
2022/10/25 05:08:50;;;;;;;12.18;2.22;;;13.60;99.90;;;;;;4980883;28;37887;-80
2022/10/25 05:11:18;;;;;;;14.55;3.25;;;13.60;99.90;;;;;;4988413;28;38184;-79
2022/10/25 05:13:45;;;;;;;15.93;2.80;;;13.50;99.90;;;;;;4997127;28;38167;-79
2022/10/25 05:16:16;;;;;;;11.02;2.85;;;13.50;99.90;;;;;;4942801;28;39235;-80
2022/10/25 05:18:45;;;;;;;7.60;2.38;;;13.50;99.90;;;;;;4981506;28;38253;-79
2022/10/25 05:21:14;;;;;;;13.88;2.95;;;13.60;99.90;;;;;;4947731;28;39109;-80
2022/10/25 05:23:41;;;;;;;13.63;3.20;;;13.60;99.90;;;;;;4976472;28;37577;-80
2022/10/25 05:26:13;;;;;;;14.45;3.63;;;13.60;99.90;;;;;;4970872;28;39166;-80
2022/10/25 05:28:41;;;;;;;10.88;4.15;;;13.60;99.90;;;;;;4949910;28;37051;-79
2022/10/25 05:31:14;;;;;;;15.88;5.03;;;13.60;99.90;;;;;;4953082;28;39963;-80
2022/10/25 05:33:43;;;;;;;15.82;4.78;;;13.60;99.90;;;;;;4947589;28;38098;-80
2022/10/25 05:36:11;;;;;;;12.10;5.15;;;13.60;99.90;;;;;;4942978;28;39749;-80
2022/10/25 05:38:38;;;;;;;15.65;5.43;;;13.60;99.90;;;;;;4962023;28;37277;-80
2022/10/25 05:41:04;;;;;;;18.85;6.78;;;13.60;99.90;;;;;;4984100;28;39409;-79
2022/10/25 05:43:30;;;;;;;9.43;4.38;;;13.60;99.90;;;;;;4963305;28;47020;-79
2022/10/25 05:46:09;;;;;;;16.65;5.38;;;13.60;99.90;;;;;;4983686;28;39482;-79
2022/10/25 05:48:37;;;;;;;10.20;4.63;;;13.60;99.90;;;;;;4977772;28;47090;-80
2022/10/25 05:51:14;;;;;;;15.55;5.72;;;13.50;99.90;;;;;;4979856;28;38924;-80
2022/10/25 05:53:42;;;;;;;11.80;4.10;;;13.40;99.90;;;;;;4965560;28;47449;-79
2022/10/25 05:56:08;;;;;;;14.05;5.20;;;13.30;99.90;;;;;;4982681;28;39289;-79
2022/10/25 05:58:34;;;;;;;17.55;5.63;;;13.30;99.90;;;;;;4972679;28;38834;-79
2022/10/25 06:01:00;;;;;;;13.43;5.55;;;13.20;99.90;;;;;;4971604;28;39587;-79
2022/10/25 06:03:26;;;;;;;15.18;4.75;;;13.20;99.90;;;;;;4972565;28;37494;-80
2022/10/25 06:05:52;;;;;;;18.95;6.95;;;13.20;99.90;;;;;;4965855;28;38472;-80
2022/10/25 06:08:18;;;;;;;11.98;4.82;;;13.30;99.90;;;;;;4969688;28;38142;-80
2022/10/25 06:10:45;;;;;;;18.60;5.82;;;13.30;99.90;;;;;;4971664;28;38622;-79
2022/10/25 06:13:11;;;;;;;18.35;5.93;;;13.30;99.90;;;;;;4966035;28;37155;-79
2022/10/25 06:15:37;;;;;;;12.75;5.80;;;13.30;99.90;;;;;;4972376;28;38643;-80
2022/10/25 06:18:03;;;;;;;15.63;5.75;;;13.30;99.90;;;;;;4987733;28;39096;-79
2022/10/25 06:20:29;;;;;;;15.70;5.30;;;13.30;99.90;;;;;;4976367;28;38539;-80
2022/10/25 06:22:56;;;;;;;14.60;6.15;;;13.30;99.90;;;;;;4958423;28;36098;-80
2022/10/25 06:25:22;;;;;;;16.02;5.70;;;13.30;99.90;;;;;;4991501;28;38458;-80
2022/10/25 06:27:48;;;;;;;17.38;5.13;;;13.30;99.90;;;;;;4983063;28;37956;-79
2022/10/25 06:30:14;;;;;;;13.57;5.95;;;13.20;99.90;;;;;;4973636;28;39177;-79
2022/10/25 06:32:40;;;;;;;11.43;5.28;;;13.20;99.90;;;;;;4972017;28;36078;-80
2022/10/25 06:35:06;;;;;;;15.02;5.75;;;13.10;99.90;;;;;;4989348;28;38567;-80
2022/10/25 06:37:32;;;;;;;20.92;5.80;;;13.10;99.90;;;;;;4963171;28;39103;-79
2022/10/25 06:39:58;;;;;;;14.75;5.93;;;13.00;99.90;;;;;;4962966;28;37532;-79
2022/10/25 06:42:24;;;;;;;17.65;6.82;;;13.00;99.90;;;;;;4972803;28;36700;-79
2022/10/25 06:44:50;;;;;;;21.02;8.25;;;13.00;99.90;;;;;;4983354;28;39160;-79
2022/10/25 06:47:16;;;;;;;13.48;6.57;;;13.00;99.90;;;;;;4981199;28;39192;-79
2022/10/25 06:49:42;;;;;;;15.98;6.88;;;13.00;99.90;;;;;;4982491;28;38651;-79
2022/10/25 06:52:08;;;;;;;18.55;7.72;;;12.90;99.90;;;;;;4987173;28;38083;-79
2022/10/25 06:54:34;;;;;;;14.45;7.40;;;12.90;99.90;;;;;;4962369;28;38896;-79
2022/10/25 06:57:01;;;;;;;12.80;6.88;;;12.90;99.90;;;;;;4970616;28;38938;-79
2022/10/25 06:59:27;;;;;;;19.80;8.25;;;12.90;99.90;;;;;;4975186;28;38548;-78
2022/10/25 07:01:54;;;;;;;17.67;7.60;;;12.90;99.90;;;;;;4977051;28;37009;-79
2022/10/25 07:04:20;;;;;;;11.68;7.32;;;12.90;99.90;;;;;;4956697;28;38826;-79
2022/10/25 07:06:46;;;;;;;11.40;7.97;;;12.80;99.90;;;;;;4951124;28;41616;-79
2022/10/25 07:09:12;;;;;;;13.20;9.15;;;12.80;99.90;;;;;;4965161;28;38444;-79
2022/10/25 07:11:39;;;;;;;17.38;7.80;;;12.80;99.90;;;;;;4950498;28;37076;-79
2022/10/25 07:14:05;;;;;;;16.00;7.45;;;12.80;99.90;;;;;;4969437;28;39243;-79
2022/10/25 07:16:31;;;;;;;13.38;7.15;;;12.80;99.90;;;;;;4965057;28;39198;-79
2022/10/25 07:18:59;;;;;;;13.32;6.97;;;12.90;99.90;;;;;;4957814;28;39000;-78
2022/10/25 07:21:26;;;;;;;10.70;6.13;;;12.90;99.90;;;;;;4974175;28;37201;-78
2022/10/25 07:23:52;;;;;;;18.40;8.05;;;12.90;99.90;;;;;;4961117;28;38614;-77
2022/10/25 07:26:23;;;;;;;18.60;7.30;;;12.90;99.90;;;;;;4974453;28;38066;-78
2022/10/25 07:28:51;;;;;;;17.88;7.25;;;12.90;99.90;;;;;;4977663;28;38976;-77
2022/10/25 07:31:29;;;;;;;17.73;6.85;;;13.00;99.90;;;;;;4979119;28;36884;-77
2022/10/25 07:33:58;;;;;;;11.43;6.05;;;13.00;99.90;;;;;;4967160;28;38522;-77
2022/10/25 07:36:24;;;;;;;13.80;7.47;;;13.10;99.90;;;;;;4960654;28;39426;-77
2022/10/25 07:38:51;;;;;;;22.90;7.60;;;13.10;99.90;;;;;;4978402;28;37995;-79
2022/10/25 07:41:18;;;;;;;12.75;6.60;;;13.20;99.90;;;;;;4959398;28;36907;-78
2022/10/25 07:43:44;;;;;;;16.05;7.03;;;13.20;99.90;;;;;;4972335;28;38816;-78
2022/10/25 07:46:10;;;;;;;11.57;6.70;;;13.20;99.90;;;;;;4959638;28;38601;-79
2022/10/25 07:48:37;;;;;;;13.80;7.32;;;13.20;99.90;;;;;;4993812;28;37538;-80
2022/10/25 07:51:10;;;;;;;11.07;7.50;;;13.30;99.90;;;;;;4959431;28;37165;-79
2022/10/25 07:53:37;;;;;;;17.60;8.38;;;13.40;99.90;;;;;;4974391;28;47236;-79
2022/10/25 07:56:03;;;;;;;14.18;7.32;;;13.50;99.90;;;;;;4996087;28;38911;-79
2022/10/25 07:58:29;;;;;;;14.65;8.00;;;13.60;99.90;;;;;;4985442;28;38837;-80
2022/10/25 08:01:04;;;;;;;16.00;8.68;;;13.70;99.90;;;;;;4993656;28;37735;-81
2022/10/25 08:03:31;;;;;;;16.10;8.43;;;13.70;99.90;;;;;;4966971;28;37658;-80
2022/10/25 08:05:57;;;;;;;14.95;7.05;;;13.90;99.90;;;;;;4960337;28;37733;-80
2022/10/25 08:08:24;;;;;;;12.18;7.72;;;14.00;99.90;;;;;;4978059;28;38362;-79
2022/10/25 08:10:50;;;;;;;13.60;6.70;;;14.10;99.90;;;;;;4970859;28;35822;-79
2022/10/25 08:13:16;;;;;;;13.23;6.82;;;14.10;99.90;;;;;;4980357;28;38656;-79
2022/10/25 08:15:54;;;;;;;15.80;6.72;;;14.20;99.90;;;;;;4933742;28;38138;-80
2022/10/25 08:18:21;;;;;;;15.77;6.30;;;14.20;99.90;;;;;;4936466;28;37444;-81
2022/10/25 08:20:53;;;;;;;15.60;7.45;;;14.10;99.90;;;;;;4934421;29;37278;-80
2022/10/25 08:23:19;;;;;;;12.43;7.05;;;14.20;99.90;;;;;;4949408;28;39218;-79
2022/10/25 08:25:46;;;;;;;11.35;6.30;;;14.10;99.90;;;;;;4938003;28;38371;-80
2022/10/25 08:28:12;;;;;;;12.32;6.18;;;14.20;99.90;;;;;;4947947;28;37951;-79
2022/10/25 08:30:41;;;;;;;17.05;6.90;;;14.10;99.90;;;;;;4918290;29;37258;-80
2022/10/25 08:33:08;;;;;;;13.25;6.38;;;14.10;99.90;;;;;;4949163;28;38866;-79
2022/10/25 08:35:34;;;;;;;11.63;6.10;;;14.20;99.90;;;;;;4952264;28;37611;-80
2022/10/25 08:38:01;;;;;;;16.33;7.57;;;14.10;99.90;;;;;;5018736;23;38201;-82
2022/10/25 08:40:52;;;;;;;19.13;7.85;;;14.20;99.90;;;;;;4991494;28;36616;-81
2022/10/25 08:43:28;;;;;;;13.70;6.97;;;14.20;99.90;;;;;;4979855;28;38906;-80
2022/10/25 08:45:59;;;;;;;14.65;7.57;;;14.30;99.90;;;;;;4973373;28;38897;-80
2022/10/25 08:48:34;;;;;;;13.02;7.57;;;14.30;99.90;;;;;;4986903;28;36651;-79
2022/10/25 08:51:12;;;;;;;15.20;8.75;;;14.40;99.90;;;;;;4974530;28;36151;-79
2022/10/25 08:53:44;;;;;;;22.05;8.88;;;14.50;99.90;;;;;;4990618;28;47950;-78
2022/10/25 08:56:14;;;;;;;18.50;8.70;;;14.50;99.90;;;;;;5028816;23;38980;-79
2022/10/25 08:58:54;;;;;;;17.17;8.23;;;14.50;99.90;;;;;;4983858;28;39236;-79
2022/10/25 09:01:42;;;;;;;21.13;9.00;;;14.60;99.90;;;;;;4985672;28;37229;-79
2022/10/25 09:04:09;;;;;;;18.98;8.23;;;14.70;99.90;;;;;;4975323;28;38938;-80
2022/10/25 09:06:49;;;;;;;14.45;7.45;;;14.80;99.90;;;;;;4971638;28;37848;-78
2022/10/25 09:09:27;;;;;;;16.90;8.13;;;14.60;99.90;;;;;;4971517;28;37691;-79
2022/10/25 09:12:15;;;;;;;15.10;7.05;;;14.60;99.90;;;;;;4987032;28;37787;-79
2022/10/25 09:14:46;;;;;;;14.70;7.15;;;14.70;99.90;;;;;;4965329;28;47330;-78
2022/10/25 09:17:19;;;;;;;11.65;5.90;;;14.80;99.90;;;;;;4989311;28;39185;-80
2022/10/25 09:20:06;;;;;;;13.35;6.82;;;14.80;99.90;;;;;;4976178;28;38263;-79
2022/10/25 09:22:43;;;;;;;17.52;7.10;;;14.80;99.90;;;;;;4985917;28;48720;-78
2022/10/25 09:25:50;;;;;;;11.80;6.43;;;14.90;99.90;;;;;;5234262;23;37538;-82
2022/10/25 09:28:42;;;;;;;11.70;6.30;;;14.80;99.90;;;;;;4999902;28;38717;-82
2022/10/25 09:36:36;;;;;;;11.80;5.78;;;14.70;99.90;;;;;;4970214;23;20044;-82
2022/10/25 09:39:33;;;;;;;11.35;4.90;;;14.80;99.90;;;;;;4975191;28;40407;-81
2022/10/25 09:42:01;;;;;;;17.08;5.57;;;14.80;99.90;;;;;;4904746;28;47634;-81
2022/10/25 09:44:42;;;;;;;15.00;5.20;;;14.80;99.90;;;;;;4936793;28;39286;-80
2022/10/25 09:47:22;;;;;;;14.88;5.05;;;14.80;99.90;;;;;;4944553;28;38354;-81
2022/10/25 09:49:54;;;;;;;10.27;4.78;;;14.80;99.90;;;;;;4944942;28;37531;-81
2022/10/25 09:52:28;;;;;;;9.98;4.70;;;14.90;99.90;;;;;;4965862;28;39157;-80
2022/10/25 09:55:13;;;;;;;12.70;5.15;;;14.90;99.90;;;;;;4960328;28;37510;-80
2022/10/25 09:57:39;;;;;;;13.02;4.65;;;15.00;99.90;;;;;;4960921;28;48627;-80
2022/10/25 10:00:05;;;;;;;11.77;4.47;;;15.00;99.90;;;;;;4941909;28;37288;-81
2022/10/25 10:02:31;;;;;;;12.38;4.53;;;15.10;99.90;;;;;;4944096;28;37212;-81
2022/10/25 10:04:58;;;;;;;10.85;4.68;;;15.20;99.90;;;;;;4960102;28;39696;-81
2022/10/25 10:07:34;;;;;;;13.15;4.22;;;15.40;99.90;;;;;;4966490;28;38965;-81
2022/10/25 10:10:05;;;;;;;11.40;4.53;;;15.50;99.90;;;;;;4953552;28;37724;-81
2022/10/25 10:12:54;;;;;;;12.75;4.93;;;15.60;99.90;;;;;;4964647;28;49698;-82
2022/10/25 10:15:38;;;;;;;14.13;4.95;;;15.60;99.90;;;;;;4960881;28;38740;-82
2022/10/25 10:18:33;;;;;;;10.95;4.20;;;15.70;99.90;;;;;;4952241;28;39107;-82
2022/10/25 10:21:14;;;;;;;15.52;4.68;;;15.70;99.90;;;;;;4946454;28;39077;-82
2022/10/25 10:23:46;;;;;;;16.60;4.10;;;15.70;99.90;;;;;;4963539;28;46936;-81
2022/10/25 10:26:31;;;;;;;8.68;4.20;;;15.70;99.90;;;;;;4955134;28;36184;-81
2022/10/25 10:29:08;;;;;;;11.68;4.85;;;15.80;99.90;;;;;;5061309;23;39287;-80
2022/10/25 10:31:43;;;;;;;16.50;4.75;;;15.70;99.90;;;;;;5027737;28;50120;-80
2022/10/25 10:34:29;;;;;;;12.65;4.20;;;15.90;99.90;;;;;;5022484;28;38372;-81
2022/10/25 10:37:15;;;;;;;11.88;3.92;;;16.00;99.90;;;;;;5009042;23;37245;-79
2022/10/25 10:40:20;;;;;;;10.63;4.05;;;16.10;99.90;;;;;;4978478;28;46660;-77
2022/10/25 10:42:47;;;;;;;10.23;3.47;;;16.40;99.90;;;;;;4988250;28;47089;-78
2022/10/25 10:45:16;;;;;;;10.90;4.05;;;16.50;99.90;;;;;;4984947;28;38767;-78
2022/10/25 10:47:48;;;;;;;14.05;4.10;;;16.60;99.90;;;;;;4976604;28;34989;-78
2022/10/25 10:50:27;;;;;;;15.80;3.92;;;16.60;99.90;;;;;;4993974;28;38928;-78
2022/10/25 10:52:56;;;;;;;15.23;4.18;;;16.50;99.90;;;;;;4987386;28;38901;-78
2022/10/25 10:55:56;;;;;;;14.77;3.63;;;16.50;99.90;;;;;;4990128;28;38430;-78
2022/10/25 10:58:31;;;;;;;10.93;3.67;;;16.70;99.90;;;;;;4993026;28;37343;-77
2022/10/25 11:00:59;;;;;;;12.27;3.83;;;17.00;99.90;;;;;;4994292;28;36959;-77
2022/10/25 11:03:38;;;;;;;10.80;3.95;;;16.70;99.90;;;;;;4966164;28;37643;-77
2022/10/25 11:06:22;;;;;;;11.02;4.07;;;16.80;99.90;;;;;;4989204;28;38191;-77
2022/10/25 11:09:08;;;;;;;11.15;3.38;;;16.60;99.90;;;;;;4969559;28;47057;-77
2022/10/25 11:11:34;;;;;;;12.85;3.72;;;16.70;99.90;;;;;;4987634;28;49598;-78
2022/10/25 11:14:06;;;;;;;9.60;2.97;;;16.70;99.90;;;;;;4978380;28;37366;-78
2022/10/25 11:16:41;;;;;;;12.23;3.65;;;16.80;99.90;;;;;;4970100;28;47299;-78
2022/10/25 11:19:32;;;;;;;14.98;4.43;;;16.90;99.90;;;;;;4989371;28;38227;-79
2022/10/25 11:22:19;;;;;;;11.27;3.58;;;16.80;99.90;;;;;;4991366;28;38927;-77
2022/10/25 11:25:19;;;;;;;13.82;3.67;;;16.60;99.90;;;;;;4973320;28;47197;-77
2022/10/25 11:28:07;;;;;;;14.27;4.05;;;16.70;99.90;;;;;;4986892;28;48621;-79
2022/10/25 11:30:53;;;;;;;12.48;2.80;;;16.90;99.90;;;;;;4981117;28;49661;-77
2022/10/25 11:33:24;;;;;;;10.55;3.20;;;17.00;99.90;;;;;;4980317;28;37920;-77
2022/10/25 11:35:58;;;;;;;9.80;3.10;;;17.10;99.90;;;;;;4977051;28;37528;-75
2022/10/25 11:38:44;;;;;;;10.13;3.72;;;17.30;99.90;;;;;;4989894;28;39526;-75
2022/10/25 11:41:44;;;;;;;12.85;3.30;;;17.60;99.90;;;;;;4988173;28;38196;-76
2022/10/25 11:44:19;;;;;;;9.18;3.10;;;17.50;99.90;;;;;;4971409;28;39676;-76
2022/10/25 11:47:12;;;;;;;11.65;3.53;;;17.50;99.90;;;;;;4988043;28;38568;-76
2022/10/25 11:50:03;;;;;;;14.93;3.75;;;17.40;99.90;;;;;;4986824;28;48447;-78
2022/10/25 11:52:35;;;;;;;11.23;3.53;;;17.30;99.90;;;;;;4986333;28;37314;-77
2022/10/25 11:55:20;;;;;;;11.18;3.03;;;17.40;99.90;;;;;;4984399;28;38506;-77
2022/10/25 11:58:10;;;;;;;8.35;2.85;;;17.70;99.90;;;;;;4991395;28;48854;-76
2022/10/25 12:01:04;;;;;;;10.52;2.45;;;17.60;99.90;;;;;;4971226;28;47463;-77
2022/10/25 12:04:01;;;;;;;10.75;2.50;;;17.60;99.90;;;;;;4972682;28;46934;-77
2022/10/25 12:06:32;;;;;;;12.43;2.97;;;17.50;99.90;;;;;;4980181;28;47498;-77
2022/10/25 12:09:17;;;;;;;13.07;3.03;;;17.80;99.90;;;;;;4975098;28;37450;-77
2022/10/25 12:11:53;;;;;;;18.30;4.22;;;17.70;99.90;;;;;;4985910;28;48082;-77
2022/10/25 12:14:29;;;;;;;9.13;2.63;;;17.60;99.90;;;;;;4989869;28;35881;-76
2022/10/25 12:16:58;;;;;;;10.90;2.78;;;17.60;99.90;;;;;;4971523;28;37812;-77
2022/10/25 12:19:27;;;;;;;8.43;2.28;;;17.60;99.90;;;;;;4986996;28;40241;-77
2022/10/25 12:21:58;;;;;;;11.93;2.67;;;17.60;99.90;;;;;;4974166;28;37318;-77
2022/10/25 12:24:36;;;;;;;11.13;2.35;;;17.60;99.90;;;;;;4985137;28;37247;-76
2022/10/25 12:27:03;;;;;;;20.60;3.25;;;17.70;99.90;;;;;;4974416;28;38831;-77
2022/10/25 12:29:36;;;;;;;9.02;2.47;;;17.80;99.90;;;;;;4963367;28;38593;-75
2022/10/25 12:32:10;;;;;;;14.07;3.00;;;17.90;99.90;;;;;;4972436;28;37395;-77
2022/10/25 12:34:48;;;;;;;8.40;2.05;;;17.80;99.90;;;;;;4971527;28;47336;-77
2022/10/25 12:37:23;;;;;;;9.32;2.88;;;17.60;99.90;;;;;;4989271;28;39500;-78
2022/10/25 12:39:50;;;;;;;8.55;2.28;;;17.70;99.90;;;;;;4973677;28;37543;-76
2022/10/25 12:42:21;;;;;;;6.63;1.95;;;17.60;99.90;;;;;;4972048;28;38493;-77
2022/10/25 12:45:18;;;;;;;12.50;2.30;;;18.00;99.90;;;;;;4973411;28;35946;-76
2022/10/25 12:48:15;;;;;;;10.00;2.00;;;18.10;99.90;;;;;;4967742;28;47138;-76
2022/10/25 12:51:09;;;;;;;13.80;2.90;;;18.10;99.90;;;;;;4987151;28;49315;-76
2022/10/25 12:53:44;;;;;;;12.10;2.33;;;18.10;99.90;;;;;;4987309;28;48229;-77
2022/10/25 12:56:28;;;;;;;10.23;2.92;;;17.90;99.90;;;;;;4965695;28;37695;-76
2022/10/25 12:59:31;;;;;;;9.73;2.17;;;17.90;99.90;;;;;;4973787;28;37856;-76
2022/10/25 13:02:37;;;;;;;11.88;2.83;;;17.80;99.90;;;;;;4990799;28;48673;-76
2022/10/25 13:05:40;;;;;;;8.55;2.22;;;17.90;99.90;;;;;;4990368;28;49162;-77
2022/10/25 13:08:08;;;;;;;8.57;2.53;;;17.90;99.90;;;;;;4971725;28;48449;-77
2022/10/25 13:10:42;;;;;;;9.82;2.55;;;17.80;99.90;;;;;;4993011;28;38557;-76
2022/10/25 13:13:34;;;;;;;13.30;3.03;;;17.80;99.90;;;;;;4985025;28;37583;-76
2022/10/25 13:16:02;;;;;;;12.98;2.70;;;17.80;99.90;;;;;;4971571;28;38627;-77